createdAt,value
2017-03-05T00:00:34.576Z,987.52
2017-03-05T00:01:34.556Z,987.56
2017-03-05T00:02:34.534Z,987.57
2017-03-05T00:03:34.525Z,987.6
2017-03-05T00:04:34.493Z,987.61
2017-03-05T00:05:34.482Z,987.65
2017-03-05T00:06:34.454Z,987.62
2017-03-05T00:07:34.433Z,987.59
2017-03-05T00:08:34.408Z,987.62
2017-03-05T00:09:34.391Z,987.63
2017-03-05T00:10:34.419Z,987.63
2017-03-05T00:11:34.346Z,987.63
2017-03-05T00:12:34.367Z,987.65
2017-03-05T00:13:34.305Z,987.66
2017-03-05T00:14:34.286Z,987.69
2017-03-05T00:15:34.260Z,987.7
2017-03-05T00:16:34.249Z,987.72
2017-03-05T00:17:34.224Z,987.71
2017-03-05T00:18:34.209Z,987.71
2017-03-05T00:19:34.176Z,987.72
2017-03-05T00:20:34.155Z,987.77
2017-03-05T00:21:34.135Z,987.78
2017-03-05T00:22:34.114Z,987.76
2017-03-05T00:23:34.093Z,987.78
2017-03-05T00:24:34.074Z,987.8
2017-03-05T00:25:34.053Z,987.83
2017-03-05T00:26:34.033Z,987.82
2017-03-05T00:27:34.009Z,987.83
2017-03-05T00:28:34.089Z,987.83
2017-03-05T00:29:33.972Z,987.89
2017-03-05T00:30:34.000Z,987.9
2017-03-05T00:31:33.932Z,987.82
2017-03-05T00:32:33.961Z,987.91
2017-03-05T00:33:33.890Z,987.91
2017-03-05T00:34:33.918Z,987.89
2017-03-05T00:35:33.848Z,987.98
2017-03-05T00:36:33.876Z,987.95
2017-03-05T00:37:33.802Z,987.93
2017-03-05T00:38:33.777Z,987.95
2017-03-05T00:39:33.756Z,988
2017-03-05T00:40:33.733Z,988.02
2017-03-05T00:41:33.715Z,988.1
2017-03-05T00:42:33.694Z,988.02
2017-03-05T00:43:33.672Z,988.11
2017-03-05T00:44:33.654Z,988.12
2017-03-05T00:45:33.628Z,988.11
2017-03-05T00:46:33.610Z,988.1
2017-03-05T00:47:33.585Z,988.11
2017-03-05T00:48:33.569Z,988.07
2017-03-05T00:49:33.551Z,988.07
2017-03-05T00:50:33.530Z,988.11
2017-03-05T00:51:33.499Z,988.12
2017-03-05T00:52:33.489Z,988.12
2017-03-05T00:53:33.458Z,988.08
2017-03-05T00:54:33.441Z,988.13
2017-03-05T00:55:33.414Z,988.15
2017-03-05T00:56:33.394Z,988.15
2017-03-05T00:57:33.377Z,988.17
2017-03-05T00:58:33.350Z,988.21
2017-03-05T00:59:33.340Z,988.2
2017-03-05T01:00:33.315Z,988.2
2017-03-05T01:01:33.287Z,988.2
2017-03-05T01:02:33.265Z,988.2
2017-03-05T01:03:33.248Z,988.26
2017-03-05T01:04:33.224Z,988.25
2017-03-05T01:05:33.204Z,988.23
2017-03-05T01:06:33.182Z,988.3
2017-03-05T01:07:33.158Z,988.26
2017-03-05T01:08:33.141Z,988.36
2017-03-05T01:09:33.122Z,988.32
2017-03-05T01:10:33.097Z,988.32
2017-03-05T01:11:33.080Z,988.48
2017-03-05T01:12:33.054Z,988.47
2017-03-05T01:13:33.029Z,988.52
2017-03-05T01:14:33.017Z,988.56
2017-03-05T01:15:32.987Z,988.74
2017-03-05T01:16:32.967Z,988.7
2017-03-05T01:17:32.947Z,988.78
2017-03-05T01:18:32.943Z,988.82
2017-03-05T01:19:32.907Z,989.14
2017-03-05T01:20:32.881Z,988.91
2017-03-05T01:21:32.862Z,988.91
2017-03-05T01:22:32.843Z,988.94
2017-03-05T01:23:32.820Z,988.96
2017-03-05T01:24:32.795Z,988.93
2017-03-05T01:25:32.774Z,988.98
2017-03-05T01:26:32.753Z,988.99
2017-03-05T01:27:32.727Z,989.07
2017-03-05T01:28:32.710Z,989
2017-03-05T01:29:32.687Z,988.94
2017-03-05T01:30:32.667Z,988.98
2017-03-05T01:31:32.651Z,988.94
2017-03-05T01:32:32.623Z,988.95
2017-03-05T01:33:32.608Z,989.01
2017-03-05T01:34:32.588Z,989.03
2017-03-05T01:35:32.559Z,989.1
2017-03-05T01:36:32.536Z,989.16
2017-03-05T01:37:32.517Z,989.17
2017-03-05T01:38:32.496Z,989.17
2017-03-05T01:39:32.476Z,989.19
2017-03-05T01:40:32.450Z,989.23
2017-03-05T01:41:32.433Z,989.22
2017-03-05T01:42:32.436Z,989.3
2017-03-05T01:43:32.392Z,989.31
2017-03-05T01:44:32.375Z,989.35
2017-03-05T01:45:32.346Z,989.34
2017-03-05T01:46:32.321Z,989.35
2017-03-05T01:47:32.309Z,989.43
2017-03-05T01:48:32.280Z,989.43
2017-03-05T01:49:32.260Z,989.48
2017-03-05T01:50:32.242Z,989.58
2017-03-05T01:51:32.219Z,989.58
2017-03-05T01:52:32.198Z,989.53
2017-03-05T01:53:32.178Z,989.58
2017-03-05T01:54:32.158Z,989.56
2017-03-05T01:55:32.131Z,989.57
2017-03-05T01:56:32.109Z,989.55
2017-03-05T01:57:32.096Z,989.57
2017-03-05T01:58:32.070Z,989.61
2017-03-05T01:59:32.055Z,989.63
2017-03-05T02:00:32.027Z,989.63
2017-03-05T02:01:32.004Z,989.65
2017-03-05T02:02:31.982Z,989.66
2017-03-05T02:03:31.962Z,989.7
2017-03-05T02:04:31.940Z,989.71
2017-03-05T02:05:31.920Z,989.7
2017-03-05T02:06:31.900Z,989.72
2017-03-05T02:07:31.876Z,989.81
2017-03-05T02:08:31.863Z,989.83
2017-03-05T02:09:31.836Z,989.81
2017-03-05T02:10:31.817Z,989.88
2017-03-05T02:11:31.801Z,989.9
2017-03-05T02:12:31.769Z,989.88
2017-03-05T02:13:31.758Z,989.85
2017-03-05T02:14:31.737Z,989.8
2017-03-05T02:15:31.706Z,989.83
2017-03-05T02:16:31.688Z,989.83
2017-03-05T02:17:31.667Z,989.83
2017-03-05T02:18:31.643Z,989.84
2017-03-05T02:19:31.623Z,989.86
2017-03-05T02:20:31.604Z,989.86
2017-03-05T02:21:31.579Z,989.84
2017-03-05T02:22:31.563Z,989.91
2017-03-05T02:23:31.532Z,989.92
2017-03-05T02:24:31.511Z,989.88
2017-03-05T02:25:31.491Z,989.92
2017-03-05T02:26:31.472Z,989.91
2017-03-05T02:27:31.448Z,989.94
2017-03-05T02:28:31.429Z,989.92
2017-03-05T02:29:31.408Z,989.98
2017-03-05T02:30:31.387Z,990
2017-03-05T02:31:31.363Z,989.97
2017-03-05T02:32:31.341Z,989.97
2017-03-05T02:33:31.317Z,990.02
2017-03-05T02:34:31.297Z,990.01
2017-03-05T02:35:31.285Z,989.98
2017-03-05T02:36:31.256Z,990
2017-03-05T02:37:31.235Z,990.01
2017-03-05T02:38:31.216Z,989.98
2017-03-05T02:39:31.188Z,989.98
2017-03-05T02:40:31.174Z,989.96
2017-03-05T02:41:31.153Z,989.96
2017-03-05T02:42:31.125Z,990.02
2017-03-05T02:43:31.102Z,990
2017-03-05T02:44:31.081Z,990
2017-03-05T02:45:31.062Z,989.96
2017-03-05T02:46:31.041Z,990.05
2017-03-05T02:47:31.016Z,990
2017-03-05T02:48:31.000Z,990.04
2017-03-05T02:49:30.978Z,990.04
2017-03-05T02:50:30.948Z,990.04
2017-03-05T02:51:30.927Z,990.08
2017-03-05T02:52:30.910Z,990.07
2017-03-05T02:53:30.888Z,990.08
2017-03-05T02:54:30.866Z,990.13
2017-03-05T02:55:30.847Z,990.1
2017-03-05T02:56:30.821Z,990.11
2017-03-05T02:57:30.805Z,990.13
2017-03-05T02:58:30.785Z,990.14
2017-03-05T02:59:30.758Z,990.17
2017-03-05T03:00:30.735Z,990.15
2017-03-05T03:01:30.714Z,990.18
2017-03-05T03:02:30.691Z,990.2
2017-03-05T03:03:30.672Z,990.22
2017-03-05T03:04:30.647Z,990.22
2017-03-05T03:05:30.627Z,990.24
2017-03-05T03:06:30.605Z,990.24
2017-03-05T03:07:30.584Z,990.27
2017-03-05T03:08:30.561Z,990.26
2017-03-05T03:09:30.539Z,990.3
2017-03-05T03:10:30.518Z,990.29
2017-03-05T03:11:30.498Z,990.36
2017-03-05T03:12:30.477Z,990.33
2017-03-05T03:13:30.455Z,990.37
2017-03-05T03:14:30.436Z,990.38
2017-03-05T03:15:30.416Z,990.37
2017-03-05T03:16:30.387Z,990.38
2017-03-05T03:17:30.371Z,990.43
2017-03-05T03:18:30.343Z,990.4
2017-03-05T03:19:30.323Z,990.41
2017-03-05T03:20:30.303Z,990.41
2017-03-05T03:21:30.280Z,990.42
2017-03-05T03:22:30.265Z,990.44
2017-03-05T03:23:30.241Z,990.46
2017-03-05T03:24:30.217Z,990.49
2017-03-05T03:25:30.195Z,990.48
2017-03-05T03:26:30.179Z,990.44
2017-03-05T03:27:30.155Z,990.52
2017-03-05T03:28:30.131Z,990.5
2017-03-05T03:29:30.108Z,990.54
2017-03-05T03:30:30.087Z,990.54
2017-03-05T03:31:30.066Z,990.55
2017-03-05T03:32:30.050Z,990.61
2017-03-05T03:33:30.040Z,990.63
2017-03-05T03:34:30.004Z,990.6
2017-03-05T03:35:29.980Z,990.58
2017-03-05T03:36:29.959Z,990.6
2017-03-05T03:37:29.942Z,990.66
2017-03-05T03:38:29.918Z,990.67
2017-03-05T03:39:29.892Z,990.67
2017-03-05T03:40:29.879Z,990.69
2017-03-05T03:41:29.849Z,990.67
2017-03-05T03:42:29.831Z,990.71
2017-03-05T03:43:29.806Z,990.71
2017-03-05T03:44:29.790Z,990.7
2017-03-05T03:45:29.767Z,990.69
2017-03-05T03:46:29.744Z,990.72
2017-03-05T03:47:29.720Z,990.72
2017-03-05T03:48:29.705Z,990.73
2017-03-05T03:49:29.678Z,990.78
2017-03-05T03:50:29.657Z,990.78
2017-03-05T03:51:29.633Z,990.81
2017-03-05T03:52:29.615Z,990.83
2017-03-05T03:53:29.590Z,990.82
2017-03-05T03:54:29.571Z,990.79
2017-03-05T03:55:29.547Z,990.83
2017-03-05T03:56:29.523Z,990.87
2017-03-05T03:57:29.503Z,990.88
2017-03-05T03:58:29.483Z,990.84
2017-03-05T03:59:29.462Z,990.88
2017-03-05T04:00:29.436Z,990.86
2017-03-05T04:01:29.420Z,990.85
2017-03-05T04:02:29.398Z,990.87
2017-03-05T04:03:29.373Z,990.86
2017-03-05T04:04:29.350Z,990.87
2017-03-05T04:05:29.329Z,990.85
2017-03-05T04:06:29.306Z,990.87
2017-03-05T04:07:29.287Z,990.91
2017-03-05T04:08:29.267Z,990.89
2017-03-05T04:09:29.248Z,990.91
2017-03-05T04:10:29.217Z,990.87
2017-03-05T04:11:29.206Z,990.92
2017-03-05T04:12:29.175Z,990.88
2017-03-05T04:13:29.157Z,990.94
2017-03-05T04:14:29.132Z,990.92
2017-03-05T04:15:29.113Z,990.93
2017-03-05T04:16:29.093Z,990.9
2017-03-05T04:17:29.072Z,990.92
2017-03-05T04:18:29.047Z,990.93
2017-03-05T04:19:29.023Z,990.93
2017-03-05T04:20:29.000Z,990.91
2017-03-05T04:21:28.980Z,990.93
2017-03-05T04:22:28.959Z,990.92
2017-03-05T04:23:28.938Z,990.92
2017-03-05T04:24:28.922Z,990.9
2017-03-05T04:25:28.890Z,990.89
2017-03-05T04:26:28.876Z,990.9
2017-03-05T04:27:28.848Z,990.9
2017-03-05T04:28:28.826Z,990.9
2017-03-05T04:29:28.805Z,990.93
2017-03-05T04:30:28.781Z,990.89
2017-03-05T04:31:28.765Z,990.92
2017-03-05T04:32:28.746Z,990.97
2017-03-05T04:33:28.723Z,990.96
2017-03-05T04:34:28.702Z,990.98
2017-03-05T04:35:28.680Z,990.96
2017-03-05T04:36:28.652Z,990.97
2017-03-05T04:37:28.634Z,990.96
2017-03-05T04:38:28.608Z,991.07
2017-03-05T04:39:28.591Z,991.04
2017-03-05T04:40:28.570Z,991.02
2017-03-05T04:41:28.546Z,991
2017-03-05T04:42:28.518Z,991.01
2017-03-05T04:43:28.504Z,991
2017-03-05T04:44:28.476Z,991.01
2017-03-05T04:45:28.452Z,990.99
2017-03-05T04:46:28.437Z,991.05
2017-03-05T04:47:28.412Z,990.97
2017-03-05T04:48:28.387Z,991.06
2017-03-05T04:49:28.369Z,991.03
2017-03-05T04:50:28.344Z,991.03
2017-03-05T04:51:28.327Z,991.05
2017-03-05T04:52:28.301Z,991.07
2017-03-05T04:53:28.282Z,991.05
2017-03-05T04:54:28.264Z,991.02
2017-03-05T04:55:28.241Z,991.04
2017-03-05T04:56:28.220Z,991.13
2017-03-05T04:57:28.196Z,991.05
2017-03-05T04:58:28.170Z,991.03
2017-03-05T04:59:28.148Z,991.11
2017-03-05T05:00:28.131Z,991.11
2017-03-05T05:01:28.110Z,991.07
2017-03-05T05:02:28.086Z,991.13
2017-03-05T05:03:28.067Z,991.13
2017-03-05T05:04:28.047Z,991.12
2017-03-05T05:05:28.021Z,991.1
2017-03-05T05:06:28.004Z,991.12
2017-03-05T05:07:27.985Z,991.18
2017-03-05T05:08:27.956Z,991.11
2017-03-05T05:09:27.934Z,991.11
2017-03-05T05:10:27.911Z,991.13
2017-03-05T05:11:27.892Z,991.12
2017-03-05T05:12:27.874Z,991.11
2017-03-05T05:13:27.848Z,991.14
2017-03-05T05:14:27.831Z,991.18
2017-03-05T05:15:27.802Z,991.16
2017-03-05T05:16:27.791Z,991.22
2017-03-05T05:17:27.759Z,991.21
2017-03-05T05:18:27.738Z,991.14
2017-03-05T05:19:27.718Z,991.21
2017-03-05T05:20:27.699Z,991.23
2017-03-05T05:21:27.671Z,991.26
2017-03-05T05:22:27.655Z,991.24
2017-03-05T05:23:27.637Z,991.25
2017-03-05T05:24:27.606Z,991.3
2017-03-05T05:25:27.584Z,991.34
2017-03-05T05:26:27.563Z,991.38
2017-03-05T05:27:27.544Z,991.3
2017-03-05T05:28:27.523Z,991.34
2017-03-05T05:29:27.501Z,991.32
2017-03-05T05:30:27.505Z,991.32
2017-03-05T05:31:27.452Z,991.35
2017-03-05T05:32:27.429Z,991.37
2017-03-05T05:33:27.413Z,991.41
2017-03-05T05:34:27.392Z,991.43
2017-03-05T05:35:27.371Z,991.51
2017-03-05T05:36:27.342Z,991.41
2017-03-05T05:37:27.324Z,991.46
2017-03-05T05:38:27.298Z,991.5
2017-03-05T05:39:27.278Z,991.48
2017-03-05T05:40:27.258Z,991.55
2017-03-05T05:41:27.238Z,991.51
2017-03-05T05:42:27.218Z,991.5
2017-03-05T05:43:27.196Z,991.49
2017-03-05T05:44:27.171Z,991.53
2017-03-05T05:45:27.153Z,991.56
2017-03-05T05:46:27.124Z,991.52
2017-03-05T05:47:27.104Z,991.58
2017-03-05T05:48:27.083Z,991.61
2017-03-05T05:49:27.064Z,991.63
2017-03-05T05:50:27.043Z,991.64
2017-03-05T05:51:27.023Z,991.64
2017-03-05T05:52:26.999Z,991.69
2017-03-05T05:53:26.975Z,991.7
2017-03-05T05:54:26.951Z,991.74
2017-03-05T05:55:26.930Z,991.69
2017-03-05T05:56:26.911Z,991.76
2017-03-05T05:57:26.889Z,991.76
2017-03-05T05:58:26.869Z,991.78
2017-03-05T05:59:26.840Z,991.82
2017-03-05T06:00:26.825Z,991.8
2017-03-05T06:01:26.804Z,991.81
2017-03-05T06:02:26.776Z,991.8
2017-03-05T06:03:26.768Z,991.8
2017-03-05T06:04:26.736Z,991.83
2017-03-05T06:05:26.710Z,991.82
2017-03-05T06:06:26.688Z,991.87
2017-03-05T06:07:26.669Z,991.86
2017-03-05T06:08:26.647Z,991.92
2017-03-05T06:09:26.623Z,992.01
2017-03-05T06:10:26.613Z,991.93
2017-03-05T06:11:26.590Z,991.98
2017-03-05T06:12:26.571Z,991.97
2017-03-05T06:13:26.541Z,991.9
2017-03-05T06:14:26.550Z,991.93
2017-03-05T06:15:26.500Z,991.98
2017-03-05T06:16:26.469Z,992.01
2017-03-05T06:17:26.453Z,991.99
2017-03-05T06:18:26.429Z,991.99
2017-03-05T06:19:26.405Z,992
2017-03-05T06:20:26.387Z,992.01
2017-03-05T06:21:26.359Z,992.14
2017-03-05T06:22:26.346Z,992.12
2017-03-05T06:23:26.326Z,992.09
2017-03-05T06:24:26.294Z,992.15
2017-03-05T06:25:26.274Z,992.16
2017-03-05T06:26:26.264Z,992.16
2017-03-05T06:27:26.233Z,992.18
2017-03-05T06:28:26.215Z,992.23
2017-03-05T06:29:26.191Z,992.25
2017-03-05T06:30:26.170Z,992.25
2017-03-05T06:31:26.143Z,992.25
2017-03-05T06:32:26.123Z,992.27
2017-03-05T06:33:26.100Z,992.27
2017-03-05T06:34:26.079Z,992.3
2017-03-05T06:35:26.060Z,992.29
2017-03-05T06:36:26.090Z,992.32
2017-03-05T06:37:26.012Z,992.36
2017-03-05T06:38:25.994Z,992.29
2017-03-05T06:39:25.973Z,992.35
2017-03-05T06:40:25.946Z,992.34
2017-03-05T06:41:25.928Z,992.33
2017-03-05T06:42:25.906Z,992.35
2017-03-05T06:43:25.886Z,992.35
2017-03-05T06:44:25.861Z,992.38
2017-03-05T06:45:25.844Z,992.42
2017-03-05T06:46:25.820Z,992.42
2017-03-05T06:47:25.794Z,992.42
2017-03-05T06:48:25.775Z,992.44
2017-03-05T06:49:25.751Z,992.47
2017-03-05T06:50:25.732Z,992.45
2017-03-05T06:51:25.710Z,992.48
2017-03-05T06:52:25.691Z,992.43
2017-03-05T06:53:25.669Z,992.46
2017-03-05T06:54:25.643Z,992.49
2017-03-05T06:55:25.620Z,992.52
2017-03-05T06:56:25.599Z,992.55
2017-03-05T06:57:25.575Z,992.52
2017-03-05T06:58:25.557Z,992.56
2017-03-05T06:59:25.535Z,992.6
2017-03-05T07:00:25.511Z,992.59
2017-03-05T07:01:25.497Z,992.54
2017-03-05T07:02:25.471Z,992.55
2017-03-05T07:03:25.446Z,992.6
2017-03-05T07:04:25.421Z,992.64
2017-03-05T07:05:25.401Z,992.62
2017-03-05T07:06:25.380Z,992.62
2017-03-05T07:07:25.365Z,992.61
2017-03-05T07:08:25.337Z,992.65
2017-03-05T07:09:25.313Z,992.71
2017-03-05T07:10:25.292Z,992.67
2017-03-05T07:11:25.273Z,992.68
2017-03-05T07:12:25.247Z,992.66
2017-03-05T07:13:25.226Z,992.71
2017-03-05T07:14:25.203Z,992.7
2017-03-05T07:15:25.179Z,992.74
2017-03-05T07:16:25.161Z,992.7
2017-03-05T07:17:25.139Z,992.77
2017-03-05T07:18:25.116Z,992.75
2017-03-05T07:19:25.100Z,992.76
2017-03-05T07:20:25.079Z,992.75
2017-03-05T07:21:25.050Z,992.78
2017-03-05T07:22:25.029Z,992.74
2017-03-05T07:23:25.006Z,992.77
2017-03-05T07:24:24.992Z,992.77
2017-03-05T07:25:24.975Z,992.76
2017-03-05T07:26:24.944Z,992.8
2017-03-05T07:27:24.919Z,992.72
2017-03-05T07:28:24.900Z,992.75
2017-03-05T07:29:24.879Z,992.84
2017-03-05T07:30:24.860Z,992.84
2017-03-05T07:31:24.839Z,992.79
2017-03-05T07:32:24.817Z,992.82
2017-03-05T07:33:24.789Z,992.83
2017-03-05T07:34:24.779Z,992.78
2017-03-05T07:35:24.748Z,992.84
2017-03-05T07:36:24.727Z,992.8
2017-03-05T07:37:24.708Z,992.82
2017-03-05T07:38:24.682Z,992.87
2017-03-05T07:39:24.663Z,992.83
2017-03-05T07:40:24.740Z,992.8
2017-03-05T07:41:24.620Z,992.85
2017-03-05T07:42:24.596Z,993.01
2017-03-05T07:43:24.574Z,992.89
2017-03-05T07:44:24.556Z,992.84
2017-03-05T07:45:24.535Z,992.86
2017-03-05T07:46:24.513Z,992.89
2017-03-05T07:47:24.492Z,992.86
2017-03-05T07:48:24.472Z,992.93
2017-03-05T07:49:24.445Z,992.9
2017-03-05T07:50:24.532Z,993.08
2017-03-05T07:51:24.399Z,992.94
2017-03-05T07:52:24.394Z,992.91
2017-03-05T07:53:24.360Z,992.88
2017-03-05T07:54:24.336Z,992.89
2017-03-05T07:55:24.318Z,992.9
2017-03-05T07:56:24.296Z,992.9
2017-03-05T07:57:24.272Z,993
2017-03-05T07:58:24.256Z,992.93
2017-03-05T07:59:24.228Z,992.96
2017-03-05T08:00:24.210Z,992.95
2017-03-05T08:01:24.194Z,993.12
2017-03-05T08:02:24.164Z,993.14
2017-03-05T08:03:24.147Z,993.15
2017-03-05T08:04:24.123Z,993.2
2017-03-05T08:05:24.101Z,993.06
2017-03-05T08:06:24.084Z,993.14
2017-03-05T08:07:24.062Z,993.11
2017-03-05T08:08:24.047Z,993.07
2017-03-05T08:09:24.030Z,993.05
2017-03-05T08:10:24.006Z,993.08
2017-03-05T08:11:23.990Z,993.05
2017-03-05T08:12:23.969Z,993.07
2017-03-05T08:13:23.943Z,993.07
2017-03-05T08:14:23.921Z,993.07
2017-03-05T08:15:23.904Z,993.06
2017-03-05T08:16:23.885Z,993.14
2017-03-05T08:17:23.861Z,993.09
2017-03-05T08:18:23.844Z,993.04
2017-03-05T08:19:23.824Z,993.06
2017-03-05T08:20:23.799Z,993.08
2017-03-05T08:21:23.783Z,993.18
2017-03-05T08:22:23.763Z,993.07
2017-03-05T08:23:23.744Z,993.09
2017-03-05T08:24:23.725Z,993.05
2017-03-05T08:25:23.718Z,993.06
2017-03-05T08:26:23.689Z,993.01
2017-03-05T08:27:23.659Z,993.1
2017-03-05T08:28:23.640Z,993.13
2017-03-05T08:29:23.620Z,993.09
2017-03-05T08:30:23.599Z,993.09
2017-03-05T08:31:23.579Z,993.13
2017-03-05T08:32:23.555Z,993.12
2017-03-05T08:33:23.538Z,993.06
2017-03-05T08:34:23.514Z,993.14
2017-03-05T08:35:23.497Z,993.16
2017-03-05T08:36:23.479Z,993.1
2017-03-05T08:37:23.456Z,993.02
2017-03-05T08:38:23.435Z,993.04
2017-03-05T08:39:23.412Z,993.08
2017-03-05T08:40:23.388Z,993.07
2017-03-05T08:41:23.375Z,993.08
2017-03-05T08:42:23.349Z,993.08
2017-03-05T08:43:23.326Z,993.14
2017-03-05T08:44:23.302Z,993.12
2017-03-05T08:45:23.285Z,993.12
2017-03-05T08:46:23.260Z,993.11
2017-03-05T08:47:23.251Z,993.19
2017-03-05T08:48:23.224Z,993.09
2017-03-05T08:49:23.201Z,993.12
2017-03-05T08:50:23.179Z,993.1
2017-03-05T08:51:23.159Z,993.13
2017-03-05T08:52:23.138Z,993.12
2017-03-05T08:53:23.118Z,993.11
2017-03-05T08:54:23.097Z,993.12
2017-03-05T08:55:23.074Z,993
2017-03-05T08:56:23.055Z,993.05
2017-03-05T08:57:23.037Z,993.08
2017-03-05T08:58:23.014Z,993.06
2017-03-05T08:59:22.994Z,993.03
2017-03-05T09:00:22.972Z,993.09
2017-03-05T09:01:22.953Z,993.08
2017-03-05T09:02:22.935Z,993.02
2017-03-05T09:03:22.911Z,993.06
2017-03-05T09:04:22.892Z,993.05
2017-03-05T09:05:22.869Z,993.04
2017-03-05T09:06:22.845Z,993.06
2017-03-05T09:07:22.830Z,993.02
2017-03-05T09:08:22.809Z,993.05
2017-03-05T09:09:22.801Z,993.06
2017-03-05T09:10:22.767Z,993.06
2017-03-05T09:11:22.747Z,993.06
2017-03-05T09:12:22.726Z,993.04
2017-03-05T09:13:22.699Z,993.09
2017-03-05T09:14:22.687Z,993.03
2017-03-05T09:15:22.655Z,993.04
2017-03-05T09:16:22.655Z,993.04
2017-03-05T09:17:22.623Z,993.02
2017-03-05T09:18:22.600Z,993.05
2017-03-05T09:19:22.572Z,993.09
2017-03-05T09:20:22.572Z,993.13
2017-03-05T09:21:22.532Z,993.07
2017-03-05T09:22:22.518Z,993.06
2017-03-05T09:23:22.495Z,993.02
2017-03-05T09:24:22.469Z,993.07
2017-03-05T09:25:22.451Z,993.01
2017-03-05T09:26:22.431Z,992.99
2017-03-05T09:27:22.409Z,993.06
2017-03-05T09:28:22.387Z,993.1
2017-03-05T09:29:22.369Z,992.9
2017-03-05T09:30:22.346Z,993.02
2017-03-05T09:31:22.351Z,993.07
2017-03-05T09:32:22.317Z,993.04
2017-03-05T09:33:22.295Z,993.15
2017-03-05T09:34:22.274Z,993.04
2017-03-05T09:35:22.252Z,993.04
2017-03-05T09:36:22.237Z,992.99
2017-03-05T09:37:22.218Z,993.07
2017-03-05T09:38:22.204Z,993.06
2017-03-05T09:39:22.190Z,993
2017-03-05T09:40:22.175Z,993.05
2017-03-05T09:41:22.149Z,993.05
2017-03-05T09:42:22.130Z,993.06
2017-03-05T09:43:22.119Z,993.26
2017-03-05T09:44:22.101Z,993.04
2017-03-05T09:45:22.087Z,993.1
2017-03-05T09:46:22.069Z,993.21
2017-03-05T09:47:22.057Z,993.29
2017-03-05T09:48:22.038Z,993.24
2017-03-05T09:49:22.019Z,993.3
2017-03-05T09:50:22.008Z,993.3
2017-03-05T09:51:21.997Z,993.3
2017-03-05T09:52:21.981Z,993.21
2017-03-05T09:53:21.962Z,993.32
2017-03-05T09:54:21.955Z,993.29
2017-03-05T09:55:21.935Z,993.21
2017-03-05T09:56:21.921Z,993.2
2017-03-05T09:57:21.904Z,993.1
2017-03-05T09:58:21.892Z,993.18
2017-03-05T09:59:21.875Z,993.19
2017-03-05T10:00:21.862Z,993.19
2017-03-05T10:01:21.848Z,993.05
2017-03-05T10:02:21.838Z,993.07
2017-03-05T10:03:21.820Z,993.11
2017-03-05T10:04:21.808Z,993.08
2017-03-05T10:05:21.792Z,993.03
2017-03-05T10:06:21.774Z,992.98
2017-03-05T10:07:21.766Z,993.14
2017-03-05T10:08:21.746Z,993.08
2017-03-05T10:09:21.734Z,993.01
2017-03-05T10:10:21.713Z,992.99
2017-03-05T10:11:21.696Z,992.94
2017-03-05T10:12:21.690Z,992.95
2017-03-05T10:13:21.664Z,992.94
2017-03-05T10:14:21.651Z,992.87
2017-03-05T10:15:21.632Z,992.99
2017-03-05T10:16:21.621Z,992.81
2017-03-05T10:17:21.598Z,992.92
2017-03-05T10:18:21.580Z,992.95
2017-03-05T10:19:21.566Z,992.96
2017-03-05T10:20:21.550Z,993.1
2017-03-05T10:21:21.539Z,993.02
2017-03-05T10:22:21.521Z,993.11
2017-03-05T10:23:21.507Z,992.96
2017-03-05T10:24:21.485Z,992.97
2017-03-05T10:25:21.475Z,992.98
2017-03-05T10:26:21.455Z,992.98
2017-03-05T10:27:21.442Z,992.95
2017-03-05T10:28:21.434Z,993
2017-03-05T10:29:21.424Z,992.96
2017-03-05T10:30:21.403Z,992.99
2017-03-05T10:31:21.395Z,992.92
2017-03-05T10:32:21.377Z,992.9
2017-03-05T10:33:21.374Z,993.04
2017-03-05T10:34:21.352Z,992.94
2017-03-05T10:35:21.340Z,992.88
2017-03-05T10:36:21.332Z,992.85
2017-03-05T10:37:21.316Z,992.89
2017-03-05T10:38:21.304Z,992.89
2017-03-05T10:39:21.297Z,992.98
2017-03-05T10:40:21.288Z,992.96
2017-03-05T10:41:21.277Z,992.89
2017-03-05T10:42:21.259Z,992.87
2017-03-05T10:43:21.246Z,992.87
2017-03-05T10:44:21.231Z,992.84
2017-03-05T10:45:21.221Z,992.84
2017-03-05T10:46:21.205Z,992.9
2017-03-05T10:47:21.196Z,992.87
2017-03-05T10:48:21.184Z,992.89
2017-03-05T10:49:21.175Z,992.87
2017-03-05T10:50:21.163Z,992.87
2017-03-05T10:51:21.144Z,992.88
2017-03-05T10:52:21.131Z,992.94
2017-03-05T10:53:21.121Z,992.86
2017-03-05T10:54:21.110Z,992.85
2017-03-05T10:55:21.091Z,992.87
2017-03-05T10:56:21.080Z,992.86
2017-03-05T10:57:21.062Z,992.89
2017-03-05T10:58:21.049Z,992.87
2017-03-05T10:59:21.033Z,992.97
2017-03-05T11:00:21.017Z,992.91
2017-03-05T11:01:21.005Z,992.87
2017-03-05T11:02:20.988Z,992.84
2017-03-05T11:03:20.972Z,992.84
2017-03-05T11:04:20.966Z,992.88
2017-03-05T11:05:20.945Z,992.84
2017-03-05T11:06:20.934Z,992.86
2017-03-05T11:07:20.914Z,992.84
2017-03-05T11:08:20.904Z,992.85
2017-03-05T11:09:20.891Z,992.81
2017-03-05T11:10:20.872Z,992.8
2017-03-05T11:11:20.852Z,992.78
2017-03-05T11:12:20.837Z,992.75
2017-03-05T11:13:20.821Z,992.68
2017-03-05T11:14:20.811Z,992.67
2017-03-05T11:15:20.790Z,992.65
2017-03-05T11:16:20.770Z,992.77
2017-03-05T11:17:20.760Z,992.65
2017-03-05T11:18:20.745Z,992.63
2017-03-05T11:19:20.722Z,992.45
2017-03-05T11:20:20.706Z,992.63
2017-03-05T11:21:20.695Z,992.6
2017-03-05T11:22:20.675Z,992.62
2017-03-05T11:23:20.654Z,992.63
2017-03-05T11:24:20.639Z,992.55
2017-03-05T11:25:20.621Z,992.55
2017-03-05T11:26:20.632Z,992.53
2017-03-05T11:27:20.588Z,992.53
2017-03-05T11:28:20.570Z,992.5
2017-03-05T11:29:20.559Z,992.46
2017-03-05T11:30:20.530Z,992.49
2017-03-05T11:31:20.520Z,992.54
2017-03-05T11:32:20.506Z,992.54
2017-03-05T11:33:20.485Z,992.62
2017-03-05T11:34:20.469Z,992.57
2017-03-05T11:35:20.453Z,992.6
2017-03-05T11:36:20.435Z,992.56
2017-03-05T11:37:20.426Z,992.56
2017-03-05T11:38:20.403Z,992.54
2017-03-05T11:39:20.389Z,992.5
2017-03-05T11:40:20.372Z,992.49
2017-03-05T11:41:20.355Z,992.49
2017-03-05T11:42:20.346Z,992.56
2017-03-05T11:43:20.323Z,992.55
2017-03-05T11:44:20.303Z,992.59
2017-03-05T11:45:20.288Z,992.5
2017-03-05T11:46:20.272Z,992.49
2017-03-05T11:47:20.257Z,992.46
2017-03-05T11:48:20.240Z,992.41
2017-03-05T11:49:20.219Z,992.49
2017-03-05T11:50:20.202Z,992.49
2017-03-05T11:51:20.193Z,992.47
2017-03-05T11:52:20.173Z,992.45
2017-03-05T11:53:20.154Z,992.51
2017-03-05T11:54:20.149Z,992.36
2017-03-05T11:55:20.119Z,992.37
2017-03-05T11:56:20.106Z,992.53
2017-03-05T11:57:20.091Z,992.57
2017-03-05T11:58:20.068Z,992.37
2017-03-05T11:59:20.052Z,992.33
2017-03-05T12:00:20.033Z,992.54
2017-03-05T12:01:20.019Z,992.37
2017-03-05T12:02:20.004Z,992.41
2017-03-05T12:03:19.991Z,992.43
2017-03-05T12:04:19.970Z,992.33
2017-03-05T12:05:19.950Z,992.45
2017-03-05T12:06:19.934Z,992.36
2017-03-05T12:07:19.921Z,992.43
2017-03-05T12:08:19.902Z,992.34
2017-03-05T12:09:19.888Z,992.31
2017-03-05T12:10:19.878Z,992.4
2017-03-05T12:11:19.857Z,992.25
2017-03-05T12:12:19.837Z,992.27
2017-03-05T12:13:19.819Z,992.2
2017-03-05T12:14:19.800Z,992.28
2017-03-05T12:15:19.783Z,992.34
2017-03-05T12:16:19.767Z,992.25
2017-03-05T12:17:19.750Z,992.28
2017-03-05T12:18:19.735Z,992.24
2017-03-05T12:19:19.712Z,992.19
2017-03-05T12:20:19.699Z,992.15
2017-03-05T12:21:19.680Z,992.2
2017-03-05T12:22:19.661Z,992.24
2017-03-05T12:23:19.649Z,992.16
2017-03-05T12:24:19.626Z,992.17
2017-03-05T12:25:19.611Z,992.03
2017-03-05T12:26:19.599Z,992.05
2017-03-05T12:27:19.579Z,992.06
2017-03-05T12:28:19.556Z,992
2017-03-05T12:29:19.538Z,991.98
2017-03-05T12:30:19.519Z,991.97
2017-03-05T12:31:19.507Z,991.92
2017-03-05T12:32:19.486Z,992.02